CCGS Tanu — CGBY — position and weather

sailwx.info

Track history (hours):
 
Tides and Currents Weather Stations Pressure Air Temp Water Temp Dewpoint Dewpoint Depression Visibility Wind Speed Wind Dir Waves Ship Positions

CCGS Tanu (Canada)

Ship's website: http://www.ccg-gcc.gc.ca/vessels-navires/details_e.asp?id=M-5

Last reported at 2015-May-19 16:33 UTC. Time now 2015-May-25 11:12 UTC.
Position N 50°51' W 127°45'.

Length 54.5 m; beam 9.7 m; draft 3.7 m.

Type: SAR. MMSI: 316091000.

Date/timePositionNaut miles runAvg speedWind from/ knotsBaromVisibWave heightAir tempDewpointWater temp
2015-May-19 16:33N 50°51' W 127°45'1111.2
2015-May-19 15:33N 50°47' W 127°29'3 1.2
2015-May-19 12:31N 50°43' W 127°29'0 0.0
2015-May-19 10:13N 50°43' W 127°29'0 0.0
2015-May-19 04:28N 50°43' W 127°29'0 0.0
2015-May-18 18:33N 50°43' W 127°29'6 6.6
2015-May-18 17:34N 50°50' W 127°28'1010.4
2015-May-18 16:33N 50°55' W 127°42'4 4.0
2015-May-18 15:30N 50°56' W 127°49'0 0.0
2015-May-18 13:24N 50°56' W 127°49'0 0.0
2015-May-18 12:30N 50°56' W 127°49'0 0.0
2015-May-18 11:06N 50°56' W 127°49'0 0.0
2015-May-18 07:30N 50°56' W 127°49'0 0.0
2015-May-17 23:21N 50°56' W 127°49'5 0.4
2015-May-17 11:16N 50°51' W 127°52'0 0.0
2015-May-17 10:28N 50°51' W 127°52'0 0.0
2015-May-17 09:28N 50°51' W 127°52'0 0.0
2015-May-17 08:29N 50°51' W 127°52'0 0.0
2015-May-17 07:28N 50°51' W 127°52'0 0.0
2015-May-17 06:16N 50°51' W 127°52'0 0.0
2015-May-17 05:22N 50°51' W 127°52'0 0.0
2015-May-17 04:19N 50°51' W 127°52'0 0.0
2015-May-17 03:31N 50°51' W 127°52'0 0.0
2015-May-17 02:25N 50°51' W 127°52'0 0.0
2015-May-17 01:31N 50°51' W 127°52'0 0.0
2015-May-17 00:25N 50°51' W 127°52'0 0.1
2015-May-16 23:33N 50°51' W 127°52'10 9.5
2015-May-16 22:33N 50°49' W 127°37'7 5.4
2015-May-16 21:11N 50°44' W 127°29'0 0.0
2015-May-16 18:17N 50°44' W 127°29'0 0.0
2015-May-16 17:29N 50°44' W 127°29'0 0.0
2015-May-16 15:29N 50°44' W 127°29'0 0.0
2015-May-16 13:17N 50°44' W 127°29'0 0.0
2015-May-16 12:17N 50°44' W 127°29'0 0.0
2015-May-16 11:29N 50°44' W 127°29'0 0.0
2015-May-16 10:05N 50°44' W 127°29'0 0.0
2015-May-16 08:29N 50°44' W 127°29'0 0.0
2015-May-16 06:11N 50°44' W 127°29'0 0.0
2015-May-16 04:23N 50°44' W 127°29'0 0.0
2015-May-16 03:11N 50°44' W 127°29'0 0.0
2015-May-16 00:11N 50°44' W 127°29'0 0.0
2015-May-15 22:05N 50°44' W 127°29'0 0.0
2015-May-15 18:23N 50°44' W 127°29'0 0.1
2015-May-15 17:31N 50°44' W 127°29'6 6.4
2015-May-15 16:33N 50°48' W 127°35'3 2.9
2015-May-15 15:29N 50°50' W 127°39'0 0.0
2015-May-15 14:29N 50°50' W 127°39'0 0.0
2015-May-15 13:29N 50°50' W 127°39'0 0.0
2015-May-15 12:29N 50°50' W 127°39'0 0.0
2015-May-15 11:29N 50°50' W 127°39'0 0.0
2015-May-15 10:29N 50°50' W 127°39'0 0.0
2015-May-15 09:29N 50°50' W 127°39'0 0.0
2015-May-15 08:29N 50°50' W 127°39'0 0.0
2015-May-15 07:29N 50°50' W 127°39'0 0.0
2015-May-15 06:29N 50°50' W 127°39'0 0.0
2015-May-15 05:23N 50°50' W 127°39'0 0.0
2015-May-15 04:29N 50°50' W 127°39'0 0.0
2015-May-15 03:29N 50°50' W 127°39'0 0.0
2015-May-15 02:23N 50°50' W 127°39'0 0.0
2015-May-15 01:17N 50°50' W 127°39'0 0.0
2015-May-15 00:29N 50°50' W 127°39'0 0.0
2015-May-14 23:23N 50°50' W 127°39'0 0.0
2015-May-14 22:29N 50°50' W 127°39'0 0.0
2015-May-14 21:29N 50°50' W 127°39'0 0.0
2015-May-14 20:23N 50°50' W 127°39'0 0.0
2015-May-14 19:29N 50°50' W 127°39'0 0.0
2015-May-14 18:30N 50°50' W 127°39'3 3.6
2015-May-14 17:33N 50°54' W 127°39'5 4.6
2015-May-14 16:33N 50°56' W 127°46'0 0.3
2015-May-14 15:32N 50°56' W 127°46'6 5.2
2015-May-14 14:28N 50°51' W 127°52'0 0.0
2015-May-14 13:28N 50°51' W 127°52'0 0.0
2015-May-14 12:28N 50°51' W 127°52'0 0.0
2015-May-14 11:28N 50°51' W 127°52'0 0.0
2015-May-14 10:28N 50°51' W 127°52'0 0.0
2015-May-14 09:28N 50°51' W 127°52'0 0.0
2015-May-14 08:28N 50°51' W 127°52'0 0.0
2015-May-14 07:28N 50°51' W 127°52'0 0.0
2015-May-14 06:29N 50°51' W 127°52'0 0.0
2015-May-14 05:28N 50°51' W 127°52'0 0.0
2015-May-14 04:28N 50°51' W 127°52'0 0.0
2015-May-14 03:23N 50°51' W 127°52'5 5.9
2015-May-14 02:33N 50°50' W 127°44'1010.6
2015-May-14 01:33N 50°47' W 127°28'3 0.4
2015-May-13 17:29N 50°43' W 127°29'0 0.0
2015-May-13 16:29N 50°43' W 127°29'4 4.1
2015-May-13 15:33N 50°47' W 127°30'1111.1
2015-May-13 14:33N 50°51' W 127°46'3 2.3
2015-May-13 13:05N 50°51' W 127°52'0 0.0
2015-May-13 12:29N 50°51' W 127°52'0 0.0
2015-May-13 11:29N 50°51' W 127°52'0 0.0
2015-May-13 10:29N 50°51' W 127°52'0 0.0
2015-May-13 09:26N 50°51' W 127°52'0 0.0
2015-May-13 08:26N 50°51' W 127°52'0 0.0
2015-May-13 07:26N 50°51' W 127°52'0 0.0
2015-May-13 06:26N 50°51' W 127°52'0 0.0
2015-May-13 05:32N 50°51' W 127°52'0 0.0
2015-May-13 04:32N 50°51' W 127°52'0 0.0
2015-May-13 03:32N 50°51' W 127°52'0 0.0
2015-May-13 02:14N 50°51' W 127°52'2 2.2
2015-May-13 01:32N 50°53' W 127°53'  
2015-May-10 18:28N 49°35' W 126°54'2 2.1
2015-May-10 17:31N 49°34' W 126°51'2 2.4
2015-May-10 16:33N 49°33' W 126°48'3 2.6
2015-May-10 15:33N 49°34' W 126°44'1110.2
2015-May-10 14:26N 49°39' W 126°28'  
Track history (hours):
 
Tides and Currents Weather Stations Pressure Air Temp Water Temp Dewpoint Dewpoint Depression Visibility Wind Speed Wind Dir Waves Ship Positions

CCGS Tanu (Canada)

Ship's website: http://www.ccg-gcc.gc.ca/vessels-navires/details_e.asp?id=M-5

Last reported at 2015-May-19 16:33 UTC. Time now 2015-May-25 11:12 UTC.
Position N 50°51' W 127°45'.

Length 54.5 m; beam 9.7 m; draft 3.7 m.

Type: SAR. MMSI: 316091000.

Date/timePositionNaut miles runAvg speedWind from/ knotsBaromVisibWave heightAir tempDewpointWater temp
2015-May-19 16:33N 50°51' W 127°45'1111.2
2015-May-19 15:33N 50°47' W 127°29'3 1.2
2015-May-19 12:31N 50°43' W 127°29'0 0.0
2015-May-19 10:13N 50°43' W 127°29'0 0.0
2015-May-19 04:28N 50°43' W 127°29'0 0.0
2015-May-18 18:33N 50°43' W 127°29'6 6.6
2015-May-18 17:34N 50°50' W 127°28'1010.4
2015-May-18 16:33N 50°55' W 127°42'4 4.0
2015-May-18 15:30N 50°56' W 127°49'0 0.0
2015-May-18 13:24N 50°56' W 127°49'0 0.0
2015-May-18 12:30N 50°56' W 127°49'0 0.0
2015-May-18 11:06N 50°56' W 127°49'0 0.0
2015-May-18 07:30N 50°56' W 127°49'0 0.0
2015-May-17 23:21N 50°56' W 127°49'5 0.4
2015-May-17 11:16N 50°51' W 127°52'0 0.0
2015-May-17 10:28N 50°51' W 127°52'0 0.0
2015-May-17 09:28N 50°51' W 127°52'0 0.0
2015-May-17 08:29N 50°51' W 127°52'0 0.0
2015-May-17 07:28N 50°51' W 127°52'0 0.0
2015-May-17 06:16N 50°51' W 127°52'0 0.0
2015-May-17 05:22N 50°51' W 127°52'0 0.0
2015-May-17 04:19N 50°51' W 127°52'0 0.0
2015-May-17 03:31N 50°51' W 127°52'0 0.0
2015-May-17 02:25N 50°51' W 127°52'0 0.0
2015-May-17 01:31N 50°51' W 127°52'0 0.0
2015-May-17 00:25N 50°51' W 127°52'0 0.1
2015-May-16 23:33N 50°51' W 127°52'10 9.5
2015-May-16 22:33N 50°49' W 127°37'7 5.4
2015-May-16 21:11N 50°44' W 127°29'0 0.0
2015-May-16 18:17N 50°44' W 127°29'0 0.0
2015-May-16 17:29N 50°44' W 127°29'0 0.0
2015-May-16 15:29N 50°44' W 127°29'0 0.0
2015-May-16 13:17N 50°44' W 127°29'0 0.0
2015-May-16 12:17N 50°44' W 127°29'0 0.0
2015-May-16 11:29N 50°44' W 127°29'0 0.0
2015-May-16 10:05N 50°44' W 127°29'0 0.0
2015-May-16 08:29N 50°44' W 127°29'0 0.0
2015-May-16 06:11N 50°44' W 127°29'0 0.0
2015-May-16 04:23N 50°44' W 127°29'0 0.0
2015-May-16 03:11N 50°44' W 127°29'0 0.0
2015-May-16 00:11N 50°44' W 127°29'0 0.0
2015-May-15 22:05N 50°44' W 127°29'0 0.0
2015-May-15 18:23N 50°44' W 127°29'0 0.1
2015-May-15 17:31N 50°44' W 127°29'6 6.4
2015-May-15 16:33N 50°48' W 127°35'3 2.9
2015-May-15 15:29N 50°50' W 127°39'0 0.0
2015-May-15 14:29N 50°50' W 127°39'0 0.0
2015-May-15 13:29N 50°50' W 127°39'0 0.0
2015-May-15 12:29N 50°50' W 127°39'0 0.0
2015-May-15 11:29N 50°50' W 127°39'0 0.0
2015-May-15 10:29N 50°50' W 127°39'0 0.0
2015-May-15 09:29N 50°50' W 127°39'0 0.0
2015-May-15 08:29N 50°50' W 127°39'0 0.0
2015-May-15 07:29N 50°50' W 127°39'0 0.0
2015-May-15 06:29N 50°50' W 127°39'0 0.0
2015-May-15 05:23N 50°50' W 127°39'0 0.0
2015-May-15 04:29N 50°50' W 127°39'0 0.0
2015-May-15 03:29N 50°50' W 127°39'0 0.0
2015-May-15 02:23N 50°50' W 127°39'0 0.0
2015-May-15 01:17N 50°50' W 127°39'0 0.0
2015-May-15 00:29N 50°50' W 127°39'0 0.0
2015-May-14 23:23N 50°50' W 127°39'0 0.0
2015-May-14 22:29N 50°50' W 127°39'0 0.0
2015-May-14 21:29N 50°50' W 127°39'0 0.0
2015-May-14 20:23N 50°50' W 127°39'0 0.0
2015-May-14 19:29N 50°50' W 127°39'0 0.0
2015-May-14 18:30N 50°50' W 127°39'3 3.6
2015-May-14 17:33N 50°54' W 127°39'5 4.6
2015-May-14 16:33N 50°56' W 127°46'0 0.3
2015-May-14 15:32N 50°56' W 127°46'6 5.2
2015-May-14 14:28N 50°51' W 127°52'0 0.0
2015-May-14 13:28N 50°51' W 127°52'0 0.0
2015-May-14 12:28N 50°51' W 127°52'0 0.0
2015-May-14 11:28N 50°51' W 127°52'0 0.0
2015-May-14 10:28N 50°51' W 127°52'0 0.0
2015-May-14 09:28N 50°51' W 127°52'0 0.0
2015-May-14 08:28N 50°51' W 127°52'0 0.0
2015-May-14 07:28N 50°51' W 127°52'0 0.0
2015-May-14 06:29N 50°51' W 127°52'0 0.0
2015-May-14 05:28N 50°51' W 127°52'0 0.0
2015-May-14 04:28N 50°51' W 127°52'0 0.0
2015-May-14 03:23N 50°51' W 127°52'5 5.9
2015-May-14 02:33N 50°50' W 127°44'1010.6
2015-May-14 01:33N 50°47' W 127°28'3 0.4
2015-May-13 17:29N 50°43' W 127°29'0 0.0
2015-May-13 16:29N 50°43' W 127°29'4 4.1
2015-May-13 15:33N 50°47' W 127°30'1111.1
2015-May-13 14:33N 50°51' W 127°46'3 2.3
2015-May-13 13:05N 50°51' W 127°52'0 0.0
2015-May-13 12:29N 50°51' W 127°52'0 0.0
2015-May-13 11:29N 50°51' W 127°52'0 0.0
2015-May-13 10:29N 50°51' W 127°52'0 0.0
2015-May-13 09:26N 50°51' W 127°52'0 0.0
2015-May-13 08:26N 50°51' W 127°52'0 0.0
2015-May-13 07:26N 50°51' W 127°52'0 0.0
2015-May-13 06:26N 50°51' W 127°52'0 0.0
2015-May-13 05:32N 50°51' W 127°52'0 0.0
2015-May-13 04:32N 50°51' W 127°52'0 0.0
2015-May-13 03:32N 50°51' W 127°52'0 0.0
2015-May-13 02:14N 50°51' W 127°52'2 2.2
2015-May-13 01:32N 50°53' W 127°53'  
2015-May-10 18:28N 49°35' W 126°54'2 2.1
2015-May-10 17:31N 49°34' W 126°51'2 2.4
2015-May-10 16:33N 49°33' W 126°48'3 2.6
2015-May-10 15:33N 49°34' W 126°44'1110.2
2015-May-10 14:26N 49°39' W 126°28'  

Dump ship's entire track history